Portada
METAR-TAF:

METAR-TAF

Aeropuertos :

Funchal, Madeira, Portugal

Aeropuerto de Madeira

latitud: 32-41-52N, longitud: 016-46-28W, altitud: 59 m

Observación

El informe se hizo hace 35 minutos, a las 15:00 UTC
Viento 11 kt del noreste
Temperatura 17°C
Humedad 72%
Presión 1028 hPa
Visibilidad 10 km o más
Escasas nubes a una altura de 1600 ft
Nubes dispersas a una altura de 3000 ft

METAR: LPMA 231500Z 04011KT 9999 FEW016 SCT030 17/12 Q1028

Hora: 15:35 (15:35 UTC)

Pronóstico

El informe se hizo hace 4 horas y 35 minutos, a las 11:00 UTC
Pronóstico válido del 23 a las 12 UTC al 24 a las 12 UTC
Viento 12 kt del norte-noreste
Visibilidad 10 km o más
Nubes dispersas a una altura de 1500 ft
Nubes dispersas a una altura de 3000 ft
Probabilidad 40% :
Temporalmente
del 23 a las 21 UTC al 24 a las 06 UTC
Cielo nuboso a una altura de 1500 ft

TAF: LPMA 231100Z 2312/2412 02012KT 9999 SCT015 SCT030 PROB40 TEMPO 2321/2406 BKN015

Observaciones y pronósticos meteorológicos de más de 4000 aeropuertos (mensajes METAR y TAF).

Los puntos amarillos y rojos representan las estaciones disponibles.

Ponga el ratón en el punto deseado para ver el nombre de la estación.

Haga clic para ver las observaciones y los pronósticos meteorológicos.

Para cambiar el mapa : haga clic en los botones verdes con una cruz de color negro para hacer un zoom, en el botón verde con un guión para alejar o en las flechas verdes para mapas adyacentes.


METAR-TAF: